createdAt,value
2018-06-17T00:02:06.439Z,19.70
2018-06-17T00:04:35.803Z,19.60
2018-06-17T00:07:05.103Z,19.60
2018-06-17T00:09:34.290Z,19.60
2018-06-17T00:12:03.648Z,19.60
2018-06-17T00:14:32.711Z,19.50
2018-06-17T00:17:02.579Z,19.60
2018-06-17T00:19:31.970Z,19.50
2018-06-17T00:22:01.126Z,19.50
2018-06-17T00:24:30.042Z,19.40
2018-06-17T00:26:59.260Z,19.40
2018-06-17T00:29:28.151Z,19.30
2018-06-17T00:31:57.866Z,19.30
2018-06-17T00:34:26.767Z,19.20
2018-06-17T00:36:55.730Z,19.20
2018-06-17T00:41:54.808Z,19.00
2018-06-17T00:44:23.918Z,18.90
2018-06-17T00:46:53.390Z,18.90
2018-06-17T00:49:22.694Z,18.80
2018-06-17T00:51:51.836Z,18.80
2018-06-17T00:54:20.771Z,18.80
2018-06-17T00:57:00.922Z,18.80
2018-06-17T00:59:30.490Z,18.70
2018-06-17T01:01:59.791Z,18.70
2018-06-17T01:04:29.122Z,18.70
2018-06-17T01:06:58.462Z,18.70
2018-06-17T01:11:57.181Z,18.70
2018-06-17T01:14:26.175Z,18.60
2018-06-17T01:16:55.507Z,18.50
2018-06-17T01:19:25.134Z,18.40
2018-06-17T01:21:54.204Z,18.40
2018-06-17T01:24:23.865Z,18.30
2018-06-17T01:26:53.108Z,18.30
2018-06-17T01:29:21.996Z,18.20
2018-06-17T01:31:51.468Z,18.20
2018-06-17T01:34:20.685Z,18.20
2018-06-17T01:36:49.865Z,18.20
2018-06-17T01:39:18.780Z,18.20
2018-06-17T01:41:47.627Z,18.20
2018-06-17T01:44:16.656Z,18.10
2018-06-17T01:46:45.572Z,18.00
2018-06-17T01:49:14.504Z,17.90
2018-06-17T01:51:43.383Z,17.80
2018-06-17T01:54:12.474Z,17.80
2018-06-17T01:56:41.408Z,17.70
2018-06-17T01:59:10.498Z,17.60
2018-06-17T02:01:39.649Z,17.50
2018-06-17T02:04:14.013Z,17.40
2018-06-17T02:06:48.287Z,17.30
2018-06-17T02:09:23.260Z,17.20
2018-06-17T02:11:58.388Z,17.20
2018-06-17T02:14:32.664Z,17.10
2018-06-17T02:17:01.964Z,17.10
2018-06-17T02:19:31.959Z,17.00
2018-06-17T02:22:01.788Z,17.00
2018-06-17T02:24:31.585Z,16.90
2018-06-17T02:27:00.740Z,16.90
2018-06-17T02:29:29.988Z,16.80
2018-06-17T02:31:59.922Z,16.80
2018-06-17T02:34:29.134Z,16.80
2018-06-17T02:36:58.387Z,16.80
2018-06-17T02:39:27.349Z,16.80
2018-06-17T02:44:25.925Z,16.80
2018-06-17T02:48:02.798Z,16.80
2018-06-17T02:50:37.216Z,16.90
2018-06-17T02:53:11.113Z,16.90
2018-06-17T02:55:40.074Z,16.90
2018-06-17T02:58:08.930Z,17.00
2018-06-17T03:00:37.811Z,17.10
2018-06-17T03:03:06.855Z,17.10
2018-06-17T03:05:35.749Z,17.30
2018-06-17T03:08:04.660Z,17.40
2018-06-17T03:10:33.836Z,17.50
2018-06-17T03:13:03.008Z,17.60
2018-06-17T03:15:31.893Z,17.70
2018-06-17T03:18:00.925Z,17.70
2018-06-17T03:20:29.933Z,17.80
2018-06-17T03:22:59.200Z,17.90
2018-06-17T03:25:33.430Z,18.00
2018-06-17T03:28:07.544Z,17.90
2018-06-17T03:30:41.908Z,18.00
2018-06-17T03:33:15.908Z,18.10
2018-06-17T03:35:51.202Z,18.20
2018-06-17T03:38:20.483Z,18.20
2018-06-17T03:40:49.643Z,18.30
2018-06-17T03:43:18.775Z,18.40
2018-06-17T03:45:47.674Z,18.40
2018-06-17T03:48:16.767Z,18.50
2018-06-17T03:50:45.920Z,18.60
2018-06-17T03:53:15.053Z,18.80
2018-06-17T03:55:44.346Z,18.90
2018-06-17T03:58:13.662Z,19.10
2018-06-17T04:00:42.983Z,19.10
2018-06-17T04:03:11.924Z,19.10
2018-06-17T04:05:41.240Z,19.30
2018-06-17T04:08:10.863Z,19.50
2018-06-17T04:10:39.748Z,19.60
2018-06-17T04:13:08.793Z,19.80
2018-06-17T04:15:37.930Z,19.90
2018-06-17T04:18:07.739Z,20.00
2018-06-17T04:20:36.914Z,20.10
2018-06-17T04:23:05.991Z,20.10
2018-06-17T04:25:35.869Z,20.30
2018-06-17T04:28:05.023Z,20.30
2018-06-17T04:30:34.980Z,20.30
2018-06-17T04:33:03.906Z,20.40
2018-06-17T04:35:32.914Z,20.70
2018-06-17T04:38:02.073Z,21.00
2018-06-17T04:40:30.965Z,21.40
2018-06-17T04:43:00.248Z,21.60
2018-06-17T04:45:29.188Z,22.00
2018-06-17T04:47:58.377Z,22.40
2018-06-17T04:50:27.711Z,22.40
2018-06-17T04:52:56.589Z,22.70
2018-06-17T04:55:25.755Z,23.20
2018-06-17T04:57:54.748Z,23.30
2018-06-17T05:00:23.660Z,23.80
2018-06-17T05:02:52.564Z,24.20
2018-06-17T05:05:21.473Z,24.20
2018-06-17T05:07:50.376Z,24.40
2018-06-17T05:10:19.386Z,24.80
2018-06-17T05:12:48.232Z,25.00
2018-06-17T05:15:17.127Z,25.10
2018-06-17T05:17:46.060Z,25.20
2018-06-17T05:20:15.784Z,25.20
2018-06-17T05:22:44.637Z,25.50
2018-06-17T05:25:13.515Z,25.60
2018-06-17T05:27:42.432Z,26.00
2018-06-17T05:30:11.310Z,26.50
2018-06-17T05:32:40.210Z,26.80
2018-06-17T05:35:09.069Z,27.50
2018-06-17T05:37:38.044Z,28.10
2018-06-17T05:40:07.354Z,29.20
2018-06-17T05:42:36.245Z,30.20
2018-06-17T05:45:05.573Z,31.10
2018-06-17T05:47:34.813Z,32.30
2018-06-17T05:50:03.788Z,33.20
2018-06-17T05:52:32.731Z,34.10
2018-06-17T05:55:01.635Z,34.60
2018-06-17T05:57:30.655Z,35.50
2018-06-17T05:59:59.532Z,34.70
2018-06-17T06:02:28.466Z,33.70
2018-06-17T06:04:57.375Z,32.90
2018-06-17T06:07:26.536Z,33.50
2018-06-17T06:09:55.765Z,35.10
2018-06-17T06:12:24.941Z,35.10
2018-06-17T06:14:53.835Z,35.00
2018-06-17T06:17:22.735Z,35.60
2018-06-17T06:19:51.659Z,35.70
2018-06-17T06:22:20.515Z,36.10
2018-06-17T06:24:49.615Z,36.00
2018-06-17T06:27:18.494Z,36.70
2018-06-17T06:29:47.405Z,36.60
2018-06-17T06:32:16.312Z,35.40
2018-06-17T06:34:45.279Z,34.60
2018-06-17T06:37:14.193Z,34.60
2018-06-17T06:39:43.218Z,34.50
2018-06-17T06:42:12.133Z,34.50
2018-06-17T06:44:41.012Z,34.70
2018-06-17T06:47:09.908Z,34.70
2018-06-17T06:49:38.774Z,34.40
2018-06-17T06:52:07.704Z,34.40
2018-06-17T06:54:36.560Z,35.00
2018-06-17T06:57:05.657Z,36.40
2018-06-17T06:59:34.518Z,37.20
2018-06-17T07:03:13.940Z,37.80
2018-06-17T07:05:53.981Z,38.00
2018-06-17T07:08:34.072Z,38.50
2018-06-17T07:11:02.943Z,38.60
2018-06-17T07:16:12.087Z,38.60
2018-06-17T07:18:41.971Z,38.10
2018-06-17T07:21:11.284Z,39.00
2018-06-17T07:23:40.391Z,39.00
2018-06-17T07:27:02.992Z,40.20
2018-06-17T07:29:42.660Z,40.10
2018-06-17T07:32:12.504Z,41.70
2018-06-17T07:34:41.804Z,42.70
2018-06-17T07:37:11.000Z,44.50
2018-06-17T07:40:19.298Z,45.00
2018-06-17T07:42:49.775Z,45.80
2018-06-17T07:45:18.919Z,46.80
2018-06-17T07:47:48.127Z,46.70
2018-06-17T07:50:28.522Z,46.30
2018-06-17T07:53:08.874Z,46.60
2018-06-17T07:55:38.028Z,46.90
2018-06-17T07:58:06.920Z,46.80
2018-06-17T08:00:35.868Z,46.50
2018-06-17T08:03:04.861Z,46.70
2018-06-17T08:05:33.809Z,46.60
2018-06-17T08:08:02.712Z,47.40
2018-06-17T08:10:31.577Z,48.00
2018-06-17T08:13:00.736Z,47.90
2018-06-17T08:17:59.362Z,46.50
2018-06-17T08:20:28.428Z,47.50
2018-06-17T08:22:57.584Z,48.60
2018-06-17T08:25:27.352Z,48.30
2018-06-17T08:27:56.547Z,48.10
2018-06-17T08:30:25.754Z,48.00
2018-06-17T08:32:54.987Z,47.90
2018-06-17T08:35:24.117Z,48.00
2018-06-17T08:37:53.320Z,47.80
2018-06-17T08:40:22.540Z,47.10
2018-06-17T08:42:51.956Z,47.40
2018-06-17T08:45:21.603Z,49.10
2018-06-17T08:47:50.717Z,48.40
2018-06-17T08:50:19.836Z,47.50
2018-06-17T08:52:48.902Z,47.20
2018-06-17T08:55:18.099Z,47.70
2018-06-17T08:57:47.395Z,47.30
2018-06-17T09:00:16.580Z,48.90
2018-06-17T09:02:45.653Z,48.70
2018-06-17T09:05:14.818Z,48.50
2018-06-17T09:07:43.847Z,47.80
2018-06-17T09:10:12.850Z,45.60
2018-06-17T09:12:41.723Z,44.20
2018-06-17T09:15:10.575Z,43.40
2018-06-17T09:17:39.455Z,41.80
2018-06-17T09:20:08.316Z,41.70
2018-06-17T09:22:37.207Z,42.50
2018-06-17T09:25:06.159Z,43.00
2018-06-17T09:27:35.201Z,44.10
2018-06-17T09:30:05.232Z,45.00
2018-06-17T09:32:34.403Z,46.20
2018-06-17T09:35:03.828Z,45.50
2018-06-17T09:37:33.088Z,43.20
2018-06-17T09:40:02.176Z,41.50
2018-06-17T09:42:31.373Z,40.30
2018-06-17T09:45:00.568Z,39.50
2018-06-17T09:47:29.504Z,38.60
2018-06-17T09:49:58.447Z,37.90
2018-06-17T09:52:27.355Z,37.70
2018-06-17T09:54:56.266Z,37.50
2018-06-17T09:57:25.142Z,37.50
2018-06-17T09:59:54.111Z,37.30
2018-06-17T10:02:22.979Z,37.30
2018-06-17T10:04:51.918Z,37.40
2018-06-17T10:07:20.787Z,37.20
2018-06-17T10:11:03.159Z,36.50
2018-06-17T10:16:02.201Z,35.80
2018-06-17T10:18:31.418Z,35.60
2018-06-17T10:21:00.312Z,35.80
2018-06-17T10:23:29.272Z,35.90
2018-06-17T10:25:58.171Z,35.80
2018-06-17T10:28:28.036Z,36.10
2018-06-17T10:30:57.643Z,35.90
2018-06-17T10:33:26.555Z,36.00
2018-06-17T10:35:55.626Z,36.00
2018-06-17T10:38:24.516Z,36.00
2018-06-17T10:40:53.396Z,36.20
2018-06-17T10:43:25.747Z,36.10
2018-06-17T10:45:54.654Z,35.90
2018-06-17T10:48:23.530Z,35.70
2018-06-17T10:50:52.456Z,35.30
2018-06-17T10:53:21.318Z,35.30
2018-06-17T10:55:50.593Z,35.10
2018-06-17T10:58:19.569Z,34.80
2018-06-17T11:00:48.499Z,34.80
2018-06-17T11:03:17.367Z,34.80
2018-06-17T11:05:46.401Z,34.90
2018-06-17T11:10:44.043Z,33.80
2018-06-17T11:13:13.049Z,33.80
2018-06-17T11:15:42.195Z,34.20
2018-06-17T11:18:11.918Z,34.60
2018-06-17T11:20:40.804Z,34.80
2018-06-17T11:23:09.724Z,34.90
2018-06-17T11:25:38.634Z,35.00
2018-06-17T11:28:07.633Z,34.90
2018-06-17T11:30:36.559Z,34.70
2018-06-17T11:33:05.497Z,34.80
2018-06-17T11:35:34.432Z,34.90
2018-06-17T11:38:03.361Z,35.00
2018-06-17T11:40:32.253Z,35.20
2018-06-17T11:43:01.346Z,35.40
2018-06-17T11:45:30.209Z,35.40
2018-06-17T11:47:59.119Z,35.30
2018-06-17T11:50:28.071Z,35.30
2018-06-17T11:52:56.985Z,35.10
2018-06-17T11:55:25.920Z,34.90
2018-06-17T11:57:54.834Z,34.80
2018-06-17T12:00:23.768Z,34.80
2018-06-17T12:02:52.695Z,34.90
2018-06-17T12:05:21.590Z,34.90
2018-06-17T12:07:50.451Z,35.20
2018-06-17T12:10:19.464Z,35.20
2018-06-17T12:12:48.364Z,35.50
2018-06-17T12:15:17.264Z,35.30
2018-06-17T12:17:46.215Z,35.10
2018-06-17T12:20:15.140Z,35.20
2018-06-17T12:22:44.039Z,35.40
2018-06-17T12:25:12.914Z,35.10
2018-06-17T12:27:41.820Z,34.70
2018-06-17T12:30:10.725Z,34.80
2018-06-17T12:32:39.610Z,34.70
2018-06-17T12:35:08.631Z,34.60
2018-06-17T12:37:37.599Z,34.10
2018-06-17T12:40:06.704Z,34.00
2018-06-17T12:42:35.608Z,34.30
2018-06-17T12:45:04.643Z,34.60
2018-06-17T12:47:33.559Z,34.70
2018-06-17T12:50:02.510Z,34.70
2018-06-17T12:52:31.392Z,34.50
2018-06-17T12:55:00.328Z,34.60
2018-06-17T12:57:29.258Z,34.80
2018-06-17T12:59:58.250Z,34.70
2018-06-17T13:02:27.124Z,34.60
2018-06-17T13:04:56.140Z,34.70
2018-06-17T13:07:25.015Z,34.50
2018-06-17T13:09:54.002Z,34.20
2018-06-17T13:12:22.895Z,33.60
2018-06-17T13:14:51.841Z,33.20
2018-06-17T13:17:20.759Z,32.90
2018-06-17T13:19:49.778Z,33.00
2018-06-17T13:22:18.640Z,33.00
2018-06-17T13:24:47.555Z,32.70
2018-06-17T13:27:16.488Z,32.50
2018-06-17T13:29:45.370Z,32.40
2018-06-17T13:32:14.369Z,32.40
2018-06-17T13:34:43.266Z,32.40
2018-06-17T13:37:12.225Z,32.50
2018-06-17T13:39:41.190Z,32.60
2018-06-17T13:42:10.104Z,32.50
2018-06-17T13:44:39.319Z,32.20
2018-06-17T13:47:08.595Z,32.10
2018-06-17T13:49:37.501Z,32.00
2018-06-17T13:52:06.447Z,32.10
2018-06-17T13:54:35.368Z,32.10
2018-06-17T13:57:04.342Z,32.00
2018-06-17T13:59:33.307Z,31.80
2018-06-17T14:02:02.234Z,31.90
2018-06-17T14:04:31.203Z,32.00
2018-06-17T14:07:00.061Z,31.90
2018-06-17T14:09:28.993Z,31.50
2018-06-17T14:11:57.906Z,31.50
2018-06-17T14:16:55.454Z,31.50
2018-06-17T14:19:24.368Z,31.50
2018-06-17T14:21:53.427Z,31.60
2018-06-17T14:24:22.356Z,31.70
2018-06-17T14:26:51.262Z,31.60
2018-06-17T14:29:20.369Z,31.70
2018-06-17T14:31:49.270Z,31.70
2018-06-17T14:36:46.631Z,31.30
2018-06-17T14:39:15.940Z,30.90
2018-06-17T14:41:49.233Z,30.70
2018-06-17T14:44:23.431Z,30.80
2018-06-17T14:46:57.545Z,30.90
2018-06-17T14:49:31.692Z,30.60
2018-06-17T14:52:05.904Z,30.60
2018-06-17T14:54:34.787Z,30.60
2018-06-17T14:57:03.665Z,30.70
2018-06-17T14:59:32.626Z,30.90
2018-06-17T15:02:02.149Z,31.00
2018-06-17T15:04:32.130Z,30.90
2018-06-17T15:07:01.021Z,31.00
2018-06-17T15:09:32.499Z,31.20
2018-06-17T15:12:01.695Z,31.30
2018-06-17T15:14:32.922Z,31.30
2018-06-17T15:17:03.397Z,31.30
2018-06-17T15:19:32.336Z,31.40
2018-06-17T15:22:01.282Z,31.50
2018-06-17T15:24:30.135Z,31.70
2018-06-17T15:26:59.043Z,31.60
2018-06-17T15:29:27.965Z,31.10
2018-06-17T15:32:02.145Z,30.70
2018-06-17T15:34:36.316Z,30.70
2018-06-17T15:37:11.015Z,30.70
2018-06-17T15:39:47.875Z,30.80
2018-06-17T15:42:16.888Z,30.80
2018-06-17T15:44:45.897Z,30.50
2018-06-17T15:47:14.796Z,30.40
2018-06-17T15:49:43.751Z,30.50
2018-06-17T15:52:12.661Z,30.40
2018-06-17T15:54:41.638Z,30.40
2018-06-17T15:57:10.699Z,30.40
2018-06-17T15:59:39.753Z,30.30
2018-06-17T16:02:08.652Z,30.40
2018-06-17T16:04:37.629Z,30.20
2018-06-17T16:07:06.582Z,30.10
2018-06-17T16:09:35.581Z,29.90
2018-06-17T16:12:09.917Z,30.00
2018-06-17T16:14:44.214Z,29.80
2018-06-17T16:17:18.469Z,29.90
2018-06-17T16:19:52.796Z,30.00
2018-06-17T16:22:21.838Z,30.20
2018-06-17T16:24:50.784Z,30.30
2018-06-17T16:27:19.692Z,30.30
2018-06-17T16:29:48.585Z,30.20
2018-06-17T16:32:17.559Z,30.40
2018-06-17T16:37:15.008Z,30.60
2018-06-17T16:39:43.943Z,30.60
2018-06-17T16:42:12.938Z,30.60
2018-06-17T16:44:41.816Z,30.60
2018-06-17T16:47:10.781Z,30.50
2018-06-17T16:49:39.940Z,30.50
2018-06-17T16:52:13.997Z,30.50
2018-06-17T16:54:48.088Z,30.50
2018-06-17T16:57:22.152Z,30.40
2018-06-17T16:59:55.927Z,30.40
2018-06-17T17:02:24.885Z,30.40
2018-06-17T17:04:53.771Z,30.40
2018-06-17T17:07:22.725Z,30.40
2018-06-17T17:09:51.709Z,30.30
2018-06-17T17:12:20.586Z,30.00
2018-06-17T17:14:49.512Z,29.70
2018-06-17T17:17:18.401Z,29.70
2018-06-17T17:19:47.369Z,29.70
2018-06-17T17:22:16.242Z,29.80
2018-06-17T17:24:45.150Z,29.80
2018-06-17T17:27:14.039Z,29.60
2018-06-17T17:29:43.042Z,29.50
2018-06-17T17:32:17.040Z,29.30
2018-06-17T17:34:51.300Z,29.20
2018-06-17T17:37:25.354Z,29.30
2018-06-17T17:40:59.059Z,29.20
2018-06-17T17:43:28.276Z,29.00
2018-06-17T17:46:02.403Z,28.90
2018-06-17T17:48:31.470Z,28.90
2018-06-17T17:51:00.878Z,28.80
2018-06-17T17:53:29.924Z,28.80
2018-06-17T17:56:00.213Z,28.80
2018-06-17T17:58:29.541Z,28.70
2018-06-17T18:00:58.532Z,28.60
2018-06-17T18:03:27.506Z,28.70
2018-06-17T18:05:56.383Z,28.60
2018-06-17T18:08:25.358Z,28.40
2018-06-17T18:10:54.342Z,28.40
2018-06-17T18:13:23.324Z,28.30
2018-06-17T18:15:52.217Z,28.20
2018-06-17T18:18:21.150Z,28.10
2018-06-17T18:20:50.057Z,28.00
2018-06-17T18:23:18.950Z,28.00
2018-06-17T18:25:53.061Z,27.90
2018-06-17T18:28:27.296Z,27.70
2018-06-17T18:31:01.429Z,27.50
2018-06-17T18:33:35.702Z,27.40
2018-06-17T18:36:09.785Z,27.40
2018-06-17T18:38:40.662Z,27.30
2018-06-17T18:41:10.292Z,27.30
2018-06-17T18:43:39.294Z,27.20
2018-06-17T18:46:08.663Z,27.10
2018-06-17T18:48:37.539Z,27.10
2018-06-17T18:51:06.496Z,27.00
2018-06-17T18:53:36.411Z,27.00
2018-06-17T18:56:05.559Z,26.90
2018-06-17T18:58:34.502Z,26.70
2018-06-17T19:01:03.779Z,26.60
2018-06-17T19:03:32.809Z,26.50
2018-06-17T19:06:02.234Z,26.40
2018-06-17T19:08:36.561Z,26.20
2018-06-17T19:11:10.770Z,26.10
2018-06-17T19:13:44.931Z,26.10
2018-06-17T19:16:19.253Z,26.00
2018-06-17T19:18:48.382Z,25.90
2018-06-17T19:21:19.037Z,25.80
2018-06-17T19:23:47.979Z,25.80
2018-06-17T19:26:18.214Z,25.70
2018-06-17T19:28:47.440Z,25.60
2018-06-17T19:31:16.570Z,25.50
2018-06-17T19:33:45.796Z,25.40
2018-06-17T19:36:14.803Z,25.40
2018-06-17T19:38:44.168Z,25.30
2018-06-17T19:41:13.236Z,25.20
2018-06-17T19:43:42.348Z,25.20
2018-06-17T19:46:11.696Z,25.10
2018-06-17T19:48:40.818Z,25.00
2018-06-17T19:51:15.166Z,24.80
2018-06-17T19:53:49.230Z,24.70
2018-06-17T19:56:24.097Z,24.60
2018-06-17T19:58:58.475Z,24.50
2018-06-17T20:01:27.616Z,24.30
2018-06-17T20:03:56.724Z,24.20
2018-06-17T20:06:25.948Z,24.00
2018-06-17T20:08:54.918Z,23.90
2018-06-17T20:11:24.083Z,23.80
2018-06-17T20:13:53.328Z,23.80
2018-06-17T20:16:24.444Z,23.70
2018-06-17T20:18:53.594Z,23.60
2018-06-17T20:21:22.670Z,23.40
2018-06-17T20:23:52.355Z,23.30
2018-06-17T20:26:21.534Z,23.20
2018-06-17T20:28:50.996Z,23.00
2018-06-17T20:31:20.100Z,23.00
2018-06-17T20:33:54.732Z,22.90
2018-06-17T20:36:29.075Z,22.90
2018-06-17T20:41:09.292Z,22.80
2018-06-17T20:43:43.771Z,22.70
2018-06-17T20:46:14.580Z,22.60
2018-06-17T20:48:44.790Z,22.50
2018-06-17T20:51:15.796Z,22.50
2018-06-17T20:53:45.850Z,22.40
2018-06-17T20:56:15.980Z,22.30
2018-06-17T20:58:46.191Z,22.10
2018-06-17T21:01:15.945Z,22.00
2018-06-17T21:03:45.461Z,22.00
2018-06-17T21:06:15.495Z,21.90
2018-06-17T21:08:44.567Z,21.80
2018-06-17T21:11:14.135Z,21.70
2018-06-17T21:13:43.368Z,21.60
2018-06-17T21:16:12.467Z,21.50
2018-06-17T21:18:47.277Z,21.40
2018-06-17T21:21:21.943Z,21.40
2018-06-17T21:23:56.258Z,21.40
2018-06-17T21:26:30.664Z,21.30
2018-06-17T21:28:59.750Z,21.20
2018-06-17T21:31:28.836Z,21.10
2018-06-17T21:33:57.846Z,21.10
2018-06-17T21:36:26.936Z,21.00
2018-06-17T21:38:55.983Z,20.90
2018-06-17T21:41:25.055Z,20.90
2018-06-17T21:43:54.021Z,20.90
2018-06-17T21:46:23.136Z,20.80
2018-06-17T21:48:52.304Z,20.70
2018-06-17T21:51:21.448Z,20.70
2018-06-17T21:53:50.473Z,20.60
2018-06-17T21:56:19.547Z,20.50
2018-06-17T21:58:49.404Z,20.50
2018-06-17T22:01:19.707Z,20.40
2018-06-17T22:03:48.813Z,20.40
2018-06-17T22:06:18.407Z,20.30
2018-06-17T22:08:52.612Z,20.40
2018-06-17T22:11:26.972Z,20.30
2018-06-17T22:14:02.403Z,20.20
2018-06-17T22:16:36.652Z,20.10
2018-06-17T22:19:05.754Z,20.10
2018-06-17T22:21:34.810Z,20.00
2018-06-17T22:24:04.919Z,20.00
2018-06-17T22:26:33.884Z,19.90
2018-06-17T22:29:03.021Z,19.90
2018-06-17T22:31:31.950Z,19.80
2018-06-17T22:34:00.965Z,19.80
2018-06-17T22:36:30.106Z,19.70
2018-06-17T22:38:59.196Z,19.70
2018-06-17T22:41:28.338Z,19.60
2018-06-17T22:43:58.518Z,19.60
2018-06-17T22:46:27.658Z,19.50
2018-06-17T22:48:56.680Z,19.50
2018-06-17T22:51:26.096Z,19.40
2018-06-17T22:54:06.309Z,19.40
2018-06-17T22:56:40.639Z,19.40
2018-06-17T23:00:17.675Z,19.40
2018-06-17T23:05:25.831Z,19.20
2018-06-17T23:08:00.259Z,19.20
2018-06-17T23:10:30.970Z,19.20
2018-06-17T23:13:00.168Z,19.10
2018-06-17T23:15:30.031Z,19.10
2018-06-17T23:17:59.109Z,19.00
2018-06-17T23:20:29.213Z,19.00
2018-06-17T23:22:59.002Z,19.00
2018-06-17T23:25:28.371Z,18.90
2018-06-17T23:27:58.443Z,18.80
2018-06-17T23:30:29.444Z,18.80
2018-06-17T23:32:58.629Z,18.80
2018-06-17T23:35:28.702Z,18.80
2018-06-17T23:37:57.805Z,18.80
2018-06-17T23:40:26.963Z,18.80
2018-06-17T23:42:56.129Z,18.70
2018-06-17T23:45:25.195Z,18.80
2018-06-17T23:47:59.716Z,18.80
2018-06-17T23:50:34.154Z,18.80
2018-06-17T23:53:08.678Z,18.80
2018-06-17T23:55:43.809Z,18.80
2018-06-17T23:58:12.876Z,18.80
